sensor_id;sensor_type;location;lat;lon;timestamp;pressure;altitude;pressure_sealevel;temperature;humidity
41312;BME280;27061;41.648;24.568;2024-03-02T00:00:22;85242.25;;;6.73;70.07
41312;BME280;27061;41.648;24.568;2024-03-02T00:02:50;85143.19;;;6.06;70.48
41312;BME280;27061;41.648;24.568;2024-03-02T00:05:19;85052.53;;;5.26;70.64
41312;BME280;27061;41.648;24.568;2024-03-02T00:07:55;85176.00;;;6.26;70.72
41312;BME280;27061;41.648;24.568;2024-03-02T00:10:32;85188.91;;;6.44;70.35
41312;BME280;27061;41.648;24.568;2024-03-02T00:13:07;85165.00;;;6.26;70.95
41312;BME280;27061;41.648;24.568;2024-03-02T00:15:47;85240.25;;;6.68;72.32
41312;BME280;27061;41.648;24.568;2024-03-02T00:18:35;85223.03;;;6.71;71.57
41312;BME280;27061;41.648;24.568;2024-03-02T00:21:03;85224.19;;;6.90;71.47
41312;BME280;27061;41.648;24.568;2024-03-02T00:23:33;85220.16;;;6.83;71.15
41312;BME280;27061;41.648;24.568;2024-03-02T00:26:02;85229.19;;;6.76;72.05
41312;BME280;27061;41.648;24.568;2024-03-02T00:28:34;85145.09;;;6.25;71.36
41312;BME280;27061;41.648;24.568;2024-03-02T00:31:12;85237.16;;;7.00;70.12
41312;BME280;27061;41.648;24.568;2024-03-02T00:33:44;85175.00;;;6.60;70.67
41312;BME280;27061;41.648;24.568;2024-03-02T00:36:15;85100.59;;;6.07;70.05
41312;BME280;27061;41.648;24.568;2024-03-02T00:38:50;85223.44;;;6.98;71.04
41312;BME280;27061;41.648;24.568;2024-03-02T00:41:29;85201.44;;;6.98;70.81
41312;BME280;27061;41.648;24.568;2024-03-02T00:44:01;85219.94;;;7.04;71.54
41312;BME280;27061;41.648;24.568;2024-03-02T00:46:39;85123.56;;;6.48;70.35
41312;BME280;27061;41.648;24.568;2024-03-02T00:49:33;85222.13;;;6.93;72.31
41312;BME280;27061;41.648;24.568;2024-03-02T00:52:01;85112.88;;;6.16;71.84
41312;BME280;27061;41.648;24.568;2024-03-02T00:54:30;85207.00;;;6.92;72.08
41312;BME280;27061;41.648;24.568;2024-03-02T00:56:57;84983.28;;;5.22;71.66
41312;BME280;27061;41.648;24.568;2024-03-02T00:59:26;85069.00;;;6.08;71.38
41312;BME280;27061;41.648;24.568;2024-03-02T01:01:53;85018.56;;;5.66;71.57
41312;BME280;27061;41.648;24.568;2024-03-02T01:04:21;84998.09;;;5.53;71.46
41312;BME280;27061;41.648;24.568;2024-03-02T01:06:48;85139.31;;;6.54;72.66
41312;BME280;27061;41.648;24.568;2024-03-02T01:09:15;85109.97;;;6.34;73.23
41312;BME280;27061;41.648;24.568;2024-03-02T01:11:45;85066.94;;;6.06;72.20
41312;BME280;27061;41.648;24.568;2024-03-02T01:14:12;85180.69;;;7.07;71.34
41312;BME280;27061;41.648;24.568;2024-03-02T01:16:40;85138.28;;;6.86;71.22
41312;BME280;27061;41.648;24.568;2024-03-02T01:19:07;85174.28;;;7.23;70.80
41312;BME280;27061;41.648;24.568;2024-03-02T01:21:34;85102.00;;;6.69;71.29
41312;BME280;27061;41.648;24.568;2024-03-02T01:24:02;85105.53;;;6.61;71.79
41312;BME280;27061;41.648;24.568;2024-03-02T01:26:30;84982.16;;;5.68;71.94
41312;BME280;27061;41.648;24.568;2024-03-02T01:28:57;85108.16;;;6.74;72.58
41312;BME280;27061;41.648;24.568;2024-03-02T01:31:25;85157.19;;;7.14;72.12
41312;BME280;27061;41.648;24.568;2024-03-02T01:33:52;84983.91;;;6.02;71.73
41312;BME280;27061;41.648;24.568;2024-03-02T01:36:19;85151.66;;;7.18;72.28
41312;BME280;27061;41.648;24.568;2024-03-02T01:38:46;85169.97;;;7.40;71.78
41312;BME280;27061;41.648;24.568;2024-03-02T01:41:14;85097.69;;;6.86;72.38
41312;BME280;27061;41.648;24.568;2024-03-02T01:43:43;85050.88;;;6.33;73.51
41312;BME280;27061;41.648;24.568;2024-03-02T01:46:11;85116.28;;;6.84;73.66
41312;BME280;27061;41.648;24.568;2024-03-02T01:48:38;85031.66;;;6.31;73.64
41312;BME280;27061;41.648;24.568;2024-03-02T01:51:09;84991.06;;;5.70;75.83
41312;BME280;27061;41.648;24.568;2024-03-02T01:53:37;85056.53;;;6.19;76.24
41312;BME280;27061;41.648;24.568;2024-03-02T01:56:05;85123.44;;;6.60;76.56
41312;BME280;27061;41.648;24.568;2024-03-02T01:58:32;85071.50;;;6.32;76.20
41312;BME280;27061;41.648;24.568;2024-03-02T02:01:00;85151.97;;;6.90;77.39
41312;BME280;27061;41.648;24.568;2024-03-02T02:03:28;85092.81;;;6.30;77.95
41312;BME280;27061;41.648;24.568;2024-03-02T02:05:56;85168.59;;;6.82;78.55
41312;BME280;27061;41.648;24.568;2024-03-02T02:08:25;85075.88;;;6.09;78.55
41312;BME280;27061;41.648;24.568;2024-03-02T02:10:53;85164.44;;;6.83;78.83
41312;BME280;27061;41.648;24.568;2024-03-02T02:13:20;85137.94;;;6.53;79.79
41312;BME280;27061;41.648;24.568;2024-03-02T02:15:57;85175.47;;;6.79;80.30
41312;BME280;27061;41.648;24.568;2024-03-02T02:18:31;85025.34;;;5.75;80.67
41312;BME280;27061;41.648;24.568;2024-03-02T02:20:58;85177.63;;;6.70;80.90
41312;BME280;27061;41.648;24.568;2024-03-02T02:23:26;85116.19;;;6.31;80.81
41312;BME280;27061;41.648;24.568;2024-03-02T02:25:53;85118.25;;;6.30;81.58
41312;BME280;27061;41.648;24.568;2024-03-02T02:28:21;85166.53;;;6.80;81.03
41312;BME280;27061;41.648;24.568;2024-03-02T02:30:49;85122.16;;;6.51;80.25
41312;BME280;27061;41.648;24.568;2024-03-02T02:33:18;85164.53;;;6.77;79.37
41312;BME280;27061;41.648;24.568;2024-03-02T02:35:46;85001.59;;;5.45;81.11
41312;BME280;27061;41.648;24.568;2024-03-02T02:38:13;84999.56;;;5.44;79.67
41312;BME280;27061;41.648;24.568;2024-03-02T02:40:41;84913.59;;;4.92;79.07
41312;BME280;27061;41.648;24.568;2024-03-02T02:43:08;84968.13;;;5.29;79.30
41312;BME280;27061;41.648;24.568;2024-03-02T02:45:36;85107.19;;;6.36;79.81
41312;BME280;27061;41.648;24.568;2024-03-02T02:48:03;85139.13;;;6.72;79.88
41312;BME280;27061;41.648;24.568;2024-03-02T02:50:31;85131.06;;;6.54;80.81
41312;BME280;27061;41.648;24.568;2024-03-02T02:52:58;85111.13;;;6.53;81.35
41312;BME280;27061;41.648;24.568;2024-03-02T02:55:26;85183.19;;;7.29;81.19
41312;BME280;27061;41.648;24.568;2024-03-02T02:57:56;85169.56;;;7.17;81.45
41312;BME280;27061;41.648;24.568;2024-03-02T03:00:24;85183.78;;;7.34;79.98
41312;BME280;27061;41.648;24.568;2024-03-02T03:02:51;85180.59;;;7.13;81.07
41312;BME280;27061;41.648;24.568;2024-03-02T03:05:19;85183.91;;;7.24;80.79
41312;BME280;27061;41.648;24.568;2024-03-02T03:07:46;85157.53;;;6.88;81.17
41312;BME280;27061;41.648;24.568;2024-03-02T03:13:06;85127.97;;;6.84;79.64
41312;BME280;27061;41.648;24.568;2024-03-02T03:15:35;85155.25;;;7.05;79.49
41312;BME280;27061;41.648;24.568;2024-03-02T03:18:06;85187.38;;;7.22;79.92
41312;BME280;27061;41.648;24.568;2024-03-02T03:20:34;85094.53;;;6.64;79.89
41312;BME280;27061;41.648;24.568;2024-03-02T03:23:02;85119.03;;;6.84;79.50
41312;BME280;27061;41.648;24.568;2024-03-02T03:25:31;85132.91;;;6.76;80.22
41312;BME280;27061;41.648;24.568;2024-03-02T03:27:58;85169.72;;;7.01;79.87
41312;BME280;27061;41.648;24.568;2024-03-02T03:30:26;85150.44;;;7.05;79.57
41312;BME280;27061;41.648;24.568;2024-03-02T03:32:53;85188.69;;;7.29;79.57
41312;BME280;27061;41.648;24.568;2024-03-02T03:35:21;85166.97;;;7.01;80.72
41312;BME280;27061;41.648;24.568;2024-03-02T03:37:48;85147.72;;;7.01;79.66
41312;BME280;27061;41.648;24.568;2024-03-02T03:40:15;85109.69;;;6.60;79.84
41312;BME280;27061;41.648;24.568;2024-03-02T03:42:43;85182.56;;;7.23;80.02
41312;BME280;27061;41.648;24.568;2024-03-02T03:45:11;85185.19;;;7.31;79.73
41312;BME280;27061;41.648;24.568;2024-03-02T03:47:38;85181.84;;;7.26;78.98
41312;BME280;27061;41.648;24.568;2024-03-02T03:50:06;85113.66;;;6.74;79.34
41312;BME280;27061;41.648;24.568;2024-03-02T03:52:36;85183.19;;;7.29;79.51
41312;BME280;27061;41.648;24.568;2024-03-02T03:55:04;85185.88;;;7.31;79.05
41312;BME280;27061;41.648;24.568;2024-03-02T03:57:33;85132.78;;;6.86;78.41
41312;BME280;27061;41.648;24.568;2024-03-02T04:00:03;85183.88;;;7.28;78.93
41312;BME280;27061;41.648;24.568;2024-03-02T04:02:40;85181.88;;;7.22;79.19
41312;BME280;27061;41.648;24.568;2024-03-02T04:05:07;85137.06;;;6.71;78.79
41312;BME280;27061;41.648;24.568;2024-03-02T04:07:38;85141.69;;;6.88;79.12
41312;BME280;27061;41.648;24.568;2024-03-02T04:10:11;85161.44;;;7.05;79.10
41312;BME280;27061;41.648;24.568;2024-03-02T04:12:39;85169.72;;;7.03;79.38
41312;BME280;27061;41.648;24.568;2024-03-02T04:15:09;85102.88;;;6.53;79.21
41312;BME280;27061;41.648;24.568;2024-03-02T04:17:36;85151.94;;;6.94;79.49
41312;BME280;27061;41.648;24.568;2024-03-02T04:20:04;85161.47;;;7.03;79.38
41312;BME280;27061;41.648;24.568;2024-03-02T04:22:35;85174.81;;;7.35;77.57
41312;BME280;27061;41.648;24.568;2024-03-02T04:25:03;85170.16;;;7.24;78.15
41312;BME280;27061;41.648;24.568;2024-03-02T04:27:31;85156.59;;;7.10;78.37
41312;BME280;27061;41.648;24.568;2024-03-02T04:30:00;85129.94;;;6.92;78.25
41312;BME280;27061;41.648;24.568;2024-03-02T04:32:28;85145.66;;;7.02;78.11
41312;BME280;27061;41.648;24.568;2024-03-02T04:34:55;85169.47;;;7.23;78.54
41312;BME280;27061;41.648;24.568;2024-03-02T04:37:22;85175.03;;;7.19;78.62
41312;BME280;27061;41.648;24.568;2024-03-02T04:39:50;85124.53;;;6.86;78.71
41312;BME280;27061;41.648;24.568;2024-03-02T04:42:17;85170.91;;;7.20;79.04
41312;BME280;27061;41.648;24.568;2024-03-02T04:44:45;85176.31;;;7.28;77.84
41312;BME280;27061;41.648;24.568;2024-03-02T04:47:12;85114.25;;;6.82;77.95
41312;BME280;27061;41.648;24.568;2024-03-02T04:49:39;85120.34;;;6.89;77.58
41312;BME280;27061;41.648;24.568;2024-03-02T04:52:07;85167.38;;;7.26;77.92
41312;BME280;27061;41.648;24.568;2024-03-02T04:54:34;85174.97;;;7.23;77.86
41312;BME280;27061;41.648;24.568;2024-03-02T04:57:24;85149.09;;;7.00;77.35
41312;BME280;27061;41.648;24.568;2024-03-02T04:59:54;85172.31;;;7.17;77.97
41312;BME280;27061;41.648;24.568;2024-03-02T05:02:21;85131.28;;;6.95;77.19
41312;BME280;27061;41.648;24.568;2024-03-02T05:04:49;85141.44;;;7.09;77.11
41312;BME280;27061;41.648;24.568;2024-03-02T05:07:16;85129.88;;;6.98;77.29
41312;BME280;27061;41.648;24.568;2024-03-02T05:09:44;85052.19;;;6.38;77.22
41312;BME280;27061;41.648;24.568;2024-03-02T05:12:11;85102.75;;;6.66;77.89
41312;BME280;27061;41.648;24.568;2024-03-02T05:14:57;85153.22;;;7.01;78.13
41312;BME280;27061;41.648;24.568;2024-03-02T05:17:24;85182.00;;;7.12;78.31
41312;BME280;27061;41.648;24.568;2024-03-02T05:19:51;85111.75;;;6.60;78.36
41312;BME280;27061;41.648;24.568;2024-03-02T05:22:19;85169.63;;;7.11;78.72
41312;BME280;27061;41.648;24.568;2024-03-02T05:24:46;85129.50;;;6.71;78.37
41312;BME280;27061;41.648;24.568;2024-03-02T05:27:14;85173.69;;;7.18;78.56
41312;BME280;27061;41.648;24.568;2024-03-02T05:29:44;85163.44;;;7.11;78.22
41312;BME280;27061;41.648;24.568;2024-03-02T05:32:12;85154.81;;;6.84;79.61
41312;BME280;27061;41.648;24.568;2024-03-02T05:34:40;85165.03;;;6.91;79.44
41312;BME280;27061;41.648;24.568;2024-03-02T05:37:08;85149.28;;;6.86;79.65
41312;BME280;27061;41.648;24.568;2024-03-02T05:39:38;85187.47;;;7.16;79.01
41312;BME280;27061;41.648;24.568;2024-03-02T05:42:05;85191.63;;;7.11;79.11
41312;BME280;27061;41.648;24.568;2024-03-02T05:44:33;85195.06;;;7.12;79.41
41312;BME280;27061;41.648;24.568;2024-03-02T05:47:00;85198.44;;;7.20;79.31
41312;BME280;27061;41.648;24.568;2024-03-02T05:49:28;85196.38;;;7.19;79.46
41312;BME280;27061;41.648;24.568;2024-03-02T05:51:58;85150.72;;;6.81;79.61
41312;BME280;27061;41.648;24.568;2024-03-02T05:54:25;85209.44;;;7.20;79.58
41312;BME280;27061;41.648;24.568;2024-03-02T05:56:53;85204.53;;;7.27;78.25
41312;BME280;27061;41.648;24.568;2024-03-02T05:59:20;85195.63;;;7.22;78.50
41312;BME280;27061;41.648;24.568;2024-03-02T06:01:48;85201.09;;;7.26;78.05
41312;BME280;27061;41.648;24.568;2024-03-02T06:04:19;85203.06;;;7.34;77.72
41312;BME280;27061;41.648;24.568;2024-03-02T06:06:46;85205.19;;;7.29;78.59
41312;BME280;27061;41.648;24.568;2024-03-02T06:09:24;85158.88;;;6.89;79.02
41312;BME280;27061;41.648;24.568;2024-03-02T06:11:51;85139.84;;;6.69;80.00
41312;BME280;27061;41.648;24.568;2024-03-02T06:14:22;85208.00;;;7.23;80.39
41312;BME280;27061;41.648;24.568;2024-03-02T06:16:52;85185.44;;;7.11;80.60
41312;BME280;27061;41.648;24.568;2024-03-02T06:19:19;85143.81;;;6.82;80.50
41312;BME280;27061;41.648;24.568;2024-03-02T06:21:49;85218.25;;;7.31;80.82
41312;BME280;27061;41.648;24.568;2024-03-02T06:24:17;85209.28;;;7.32;80.72
41312;BME280;27061;41.648;24.568;2024-03-02T06:26:44;85206.47;;;7.37;80.49
41312;BME280;27061;41.648;24.568;2024-03-02T06:29:11;85218.81;;;7.42;80.46
41312;BME280;27061;41.648;24.568;2024-03-02T06:31:39;85142.34;;;6.91;79.54
41312;BME280;27061;41.648;24.568;2024-03-02T06:34:06;85199.59;;;7.38;78.73
41312;BME280;27061;41.648;24.568;2024-03-02T06:36:35;85126.63;;;6.83;78.76
41312;BME280;27061;41.648;24.568;2024-03-02T06:39:02;85121.22;;;6.75;79.05
41312;BME280;27061;41.648;24.568;2024-03-02T06:41:30;85132.66;;;6.96;78.07
41312;BME280;27061;41.648;24.568;2024-03-02T06:43:57;85173.47;;;7.34;77.77
41312;BME280;27061;41.648;24.568;2024-03-02T06:46:27;85217.25;;;7.57;78.46
41312;BME280;27061;41.648;24.568;2024-03-02T06:48:54;85221.38;;;7.56;78.53
41312;BME280;27061;41.648;24.568;2024-03-02T06:51:22;85199.66;;;7.31;78.65
41312;BME280;27061;41.648;24.568;2024-03-02T06:53:49;85175.09;;;7.15;78.83
41312;BME280;27061;41.648;24.568;2024-03-02T06:56:16;85169.66;;;7.09;79.16
41312;BME280;27061;41.648;24.568;2024-03-02T06:58:44;85236.53;;;7.57;79.36
41312;BME280;27061;41.648;24.568;2024-03-02T07:01:11;85196.91;;;7.31;79.37
41312;BME280;27061;41.648;24.568;2024-03-02T07:03:39;85209.78;;;7.49;79.14
41312;BME280;27061;41.648;24.568;2024-03-02T07:06:08;85230.91;;;7.65;78.73
41312;BME280;27061;41.648;24.568;2024-03-02T07:08:35;85182.53;;;7.25;78.93
41312;BME280;27061;41.648;24.568;2024-03-02T07:11:03;85230.91;;;7.65;79.18
41312;BME280;27061;41.648;24.568;2024-03-02T07:13:31;85239.78;;;7.71;78.52
41312;BME280;27061;41.648;24.568;2024-03-02T07:15:58;85237.75;;;7.68;78.80
41312;BME280;27061;41.648;24.568;2024-03-02T07:18:31;85212.50;;;7.51;78.99
41312;BME280;27061;41.648;24.568;2024-03-02T07:21:00;85199.47;;;7.48;79.13
41312;BME280;27061;41.648;24.568;2024-03-02T07:23:28;85205.00;;;7.46;79.30
41312;BME280;27061;41.648;24.568;2024-03-02T07:25:56;85222.72;;;7.59;79.83
41312;BME280;27061;41.648;24.568;2024-03-02T07:28:26;85219.34;;;7.54;79.82
41312;BME280;27061;41.648;24.568;2024-03-02T07:31:00;85237.72;;;7.72;79.86
41312;BME280;27061;41.648;24.568;2024-03-02T07:33:28;85236.34;;;7.73;79.37
41312;BME280;27061;41.648;24.568;2024-03-02T07:35:56;85244.66;;;7.67;79.85
41312;BME280;27061;41.648;24.568;2024-03-02T07:38:24;85214.56;;;7.51;79.96
41312;BME280;27061;41.648;24.568;2024-03-02T07:40:51;85178.97;;;7.34;80.09
41312;BME280;27061;41.648;24.568;2024-03-02T07:43:19;85198.19;;;7.39;81.01
41312;BME280;27061;41.648;24.568;2024-03-02T07:45:47;85226.78;;;7.64;81.01
41312;BME280;27061;41.648;24.568;2024-03-02T07:48:17;85245.81;;;7.84;80.91
41312;BME280;27061;41.648;24.568;2024-03-02T07:50:45;85228.09;;;7.71;80.67
41312;BME280;27061;41.648;24.568;2024-03-02T07:53:12;85250.16;;;7.69;81.06
41312;BME280;27061;41.648;24.568;2024-03-02T07:55:41;85232.28;;;7.66;80.35
41312;BME280;27061;41.648;24.568;2024-03-02T07:58:08;85232.84;;;7.75;79.60
41312;BME280;27061;41.648;24.568;2024-03-02T08:00:36;85204.88;;;7.54;79.95
41312;BME280;27061;41.648;24.568;2024-03-02T08:03:04;85213.09;;;7.60;78.76
41312;BME280;27061;41.648;24.568;2024-03-02T08:05:31;85225.41;;;7.63;78.88
41312;BME280;27061;41.648;24.568;2024-03-02T08:07:59;85214.50;;;7.55;79.28
41312;BME280;27061;41.648;24.568;2024-03-02T08:10:26;85223.41;;;7.59;79.70
41312;BME280;27061;41.648;24.568;2024-03-02T08:12:53;85244.50;;;7.79;79.40
41312;BME280;27061;41.648;24.568;2024-03-02T08:15:21;85220.69;;;7.57;79.60
41312;BME280;27061;41.648;24.568;2024-03-02T08:17:49;85263.63;;;7.93;79.55
41312;BME280;27061;41.648;24.568;2024-03-02T08:20:17;85239.03;;;7.77;79.88
41312;BME280;27061;41.648;24.568;2024-03-02T08:22:45;85228.78;;;7.69;80.19
41312;BME280;27061;41.648;24.568;2024-03-02T08:25:12;85233.59;;;7.71;80.46
41312;BME280;27061;41.648;24.568;2024-03-02T08:27:40;85228.03;;;7.75;80.06
41312;BME280;27061;41.648;24.568;2024-03-02T08:30:08;85262.13;;;8.02;79.83
41312;BME280;27061;41.648;24.568;2024-03-02T08:32:37;85248.50;;;7.90;79.63
41312;BME280;27061;41.648;24.568;2024-03-02T08:35:06;85218.31;;;7.82;79.04
41312;BME280;27061;41.648;24.568;2024-03-02T08:37:34;85259.22;;;8.13;79.14
41312;BME280;27061;41.648;24.568;2024-03-02T08:40:01;85257.16;;;8.13;79.34
41312;BME280;27061;41.648;24.568;2024-03-02T08:42:31;85266.13;;;8.12;79.86
41312;BME280;27061;41.648;24.568;2024-03-02T08:45:01;85259.97;;;8.07;80.55
41312;BME280;27061;41.648;24.568;2024-03-02T08:47:29;85240.25;;;7.88;80.39
41312;BME280;27061;41.648;24.568;2024-03-02T08:49:59;85182.75;;;7.62;79.98
41312;BME280;27061;41.648;24.568;2024-03-02T08:52:28;85256.44;;;8.15;78.40
41312;BME280;27061;41.648;24.568;2024-03-02T08:54:56;85223.69;;;7.90;79.75
41312;BME280;27061;41.648;24.568;2024-03-02T08:57:23;85233.34;;;7.91;78.64
41312;BME280;27061;41.648;24.568;2024-03-02T08:59:51;85221.19;;;7.72;79.96
41312;BME280;27061;41.648;24.568;2024-03-02T09:02:24;85266.16;;;8.07;81.22
41312;BME280;27061;41.648;24.568;2024-03-02T09:04:52;85223.94;;;7.72;83.02
41312;BME280;27061;41.648;24.568;2024-03-02T09:07:22;85181.59;;;7.45;82.46
41312;BME280;27061;41.648;24.568;2024-03-02T09:09:50;85245.16;;;7.84;82.27
41312;BME280;27061;41.648;24.568;2024-03-02T09:12:18;85259.28;;;8.06;83.89
41312;BME280;27061;41.648;24.568;2024-03-02T09:14:46;85264.63;;;8.19;83.08
41312;BME280;27061;41.648;24.568;2024-03-02T09:17:14;85225.06;;;7.91;82.97
41312;BME280;27061;41.648;24.568;2024-03-02T09:19:41;85266.66;;;8.24;82.77
41312;BME280;27061;41.648;24.568;2024-03-02T09:22:08;85241.97;;;8.14;82.25
41312;BME280;27061;41.648;24.568;2024-03-02T09:24:37;85223.56;;;8.00;80.34
41312;BME280;27061;41.648;24.568;2024-03-02T09:27:04;85260.22;;;8.40;79.52
41312;BME280;27061;41.648;24.568;2024-03-02T09:29:32;85220.59;;;8.15;79.54
41312;BME280;27061;41.648;24.568;2024-03-02T09:32:00;85260.84;;;8.47;80.68
41312;BME280;27061;41.648;24.568;2024-03-02T09:34:30;85230.13;;;8.22;81.40
41312;BME280;27061;41.648;24.568;2024-03-02T09:36:57;85255.88;;;8.55;79.50
41312;BME280;27061;41.648;24.568;2024-03-02T09:39:25;85260.00;;;8.56;78.60
41312;BME280;27061;41.648;24.568;2024-03-02T09:41:53;85261.34;;;8.57;79.37
41312;BME280;27061;41.648;24.568;2024-03-02T09:44:21;85222.44;;;8.32;79.69
41312;BME280;27061;41.648;24.568;2024-03-02T09:46:49;85231.34;;;8.35;80.15
41312;BME280;27061;41.648;24.568;2024-03-02T09:49:17;85236.09;;;8.38;80.78
41312;BME280;27061;41.648;24.568;2024-03-02T09:51:47;85242.28;;;8.41;82.04
41312;BME280;27061;41.648;24.568;2024-03-02T09:54:17;85182.88;;;8.03;82.17
41312;BME280;27061;41.648;24.568;2024-03-02T09:56:50;85235.25;;;8.50;81.96
41312;BME280;27061;41.648;24.568;2024-03-02T09:59:18;85243.53;;;8.50;81.70
41312;BME280;27061;41.648;24.568;2024-03-02T10:01:58;85251.56;;;8.66;81.37
41312;BME280;27061;41.648;24.568;2024-03-02T10:04:27;85234.38;;;8.62;80.51
41312;BME280;27061;41.648;24.568;2024-03-02T10:07:14;85218.78;;;8.46;80.91
41312;BME280;27061;41.648;24.568;2024-03-02T10:09:43;85246.53;;;8.79;80.80
41312;BME280;27061;41.648;24.568;2024-03-02T10:12:13;85257.50;;;8.81;80.58
41312;BME280;27061;41.648;24.568;2024-03-02T10:14:44;85249.84;;;8.86;79.84
41312;BME280;27061;41.648;24.568;2024-03-02T10:17:13;85218.47;;;8.64;79.35
41312;BME280;27061;41.648;24.568;2024-03-02T10:19:41;85202.22;;;8.46;81.36
41312;BME280;27061;41.648;24.568;2024-03-02T10:22:09;85250.56;;;8.84;81.08
41312;BME280;27061;41.648;24.568;2024-03-02T10:24:39;85206.25;;;8.51;81.48
41312;BME280;27061;41.648;24.568;2024-03-02T10:27:14;85208.78;;;8.67;80.96
41312;BME280;27061;41.648;24.568;2024-03-02T10:29:45;85207.28;;;8.72;81.75
41312;BME280;27061;41.648;24.568;2024-03-02T10:32:12;85197.06;;;8.67;81.78
41312;BME280;27061;41.648;24.568;2024-03-02T10:34:41;85245.50;;;8.99;81.40
41312;BME280;27061;41.648;24.568;2024-03-02T10:37:08;85220.91;;;8.82;81.68
41312;BME280;27061;41.648;24.568;2024-03-02T10:39:37;85205.03;;;8.83;81.80
41312;BME280;27061;41.648;24.568;2024-03-02T10:42:08;85203.78;;;8.76;81.63
41312;BME280;27061;41.648;24.568;2024-03-02T10:44:36;85196.69;;;8.87;81.69
41312;BME280;27061;41.648;24.568;2024-03-02T10:47:04;85174.34;;;8.62;81.50
41312;BME280;27061;41.648;24.568;2024-03-02T10:49:33;85233.63;;;9.06;81.75
41312;BME280;27061;41.648;24.568;2024-03-02T10:52:01;85198.13;;;8.84;81.57
41312;BME280;27061;41.648;24.568;2024-03-02T10:54:29;85191.19;;;8.87;81.27
41312;BME280;27061;41.648;24.568;2024-03-02T10:57:04;85159.31;;;8.55;81.19
41312;BME280;27061;41.648;24.568;2024-03-02T10:59:35;85172.78;;;8.73;80.67
41312;BME280;27061;41.648;24.568;2024-03-02T11:02:03;85191.66;;;9.00;80.22
41312;BME280;27061;41.648;24.568;2024-03-02T11:04:32;85171.91;;;8.85;79.75
41312;BME280;27061;41.648;24.568;2024-03-02T11:07:05;85227.13;;;9.22;79.38
41312;BME280;27061;41.648;24.568;2024-03-02T11:09:38;85150.75;;;8.71;79.23
41312;BME280;27061;41.648;24.568;2024-03-02T11:14:42;85208.13;;;9.04;79.29
41312;BME280;27061;41.648;24.568;2024-03-02T11:17:14;85156.28;;;8.69;77.45
41312;BME280;27061;41.648;24.568;2024-03-02T11:19:46;85203.97;;;9.05;77.62
41312;BME280;27061;41.648;24.568;2024-03-02T11:22:15;85186.25;;;8.92;77.82
41312;BME280;27061;41.648;24.568;2024-03-02T11:24:50;85203.63;;;9.23;71.48
41312;BME280;27061;41.648;24.568;2024-03-02T11:33:03;85218.97;;;9.16;73.59
41312;BME280;27061;41.648;24.568;2024-03-02T11:35:42;85224.53;;;9.12;73.63
41312;BME280;27061;41.648;24.568;2024-03-02T11:38:12;85207.66;;;8.91;74.73
41312;BME280;27061;41.648;24.568;2024-03-02T11:40:40;85181.09;;;8.71;73.40
41312;BME280;27061;41.648;24.568;2024-03-02T11:43:09;85216.41;;;9.04;74.47
41312;BME280;27061;41.648;24.568;2024-03-02T11:45:37;85154.44;;;8.58;76.00
41312;BME280;27061;41.648;24.568;2024-03-02T11:48:14;85088.38;;;8.06;76.66
41312;BME280;27061;41.648;24.568;2024-03-02T11:50:51;85217.00;;;9.10;75.94
41312;BME280;27061;41.648;24.568;2024-03-02T11:53:20;85199.94;;;9.00;75.15
41312;BME280;27061;41.648;24.568;2024-03-02T11:55:52;85213.56;;;9.10;76.83
41312;BME280;27061;41.648;24.568;2024-03-02T11:58:22;85172.84;;;8.69;78.31
41312;BME280;27061;41.648;24.568;2024-03-02T12:00:54;85216.38;;;9.06;78.65
41312;BME280;27061;41.648;24.568;2024-03-02T12:03:23;85219.19;;;9.04;78.95
41312;BME280;27061;41.648;24.568;2024-03-02T12:05:53;85214.88;;;9.13;78.09
41312;BME280;27061;41.648;24.568;2024-03-02T12:08:21;85217.00;;;9.10;78.17
41312;BME280;27061;41.648;24.568;2024-03-02T12:11:00;85215.44;;;8.80;78.80
41312;BME280;27061;41.648;24.568;2024-03-02T12:13:30;85216.41;;;8.65;79.20
41312;BME280;27061;41.648;24.568;2024-03-02T12:15:58;85167.81;;;8.41;76.62
41312;BME280;27061;41.648;24.568;2024-03-02T12:18:25;85193.63;;;8.64;77.65
41312;BME280;27061;41.648;24.568;2024-03-02T12:20:53;85148.47;;;8.43;78.31
41312;BME280;27061;41.648;24.568;2024-03-02T12:23:25;85196.09;;;8.82;78.94
41312;BME280;27061;41.648;24.568;2024-03-02T12:25:52;85175.09;;;8.59;79.21
41312;BME280;27061;41.648;24.568;2024-03-02T12:28:20;85204.19;;;8.93;79.15
41312;BME280;27061;41.648;24.568;2024-03-02T12:30:51;85159.16;;;8.63;79.34
41312;BME280;27061;41.648;24.568;2024-03-02T12:33:19;85178.28;;;8.75;79.03
41312;BME280;27061;41.648;24.568;2024-03-02T12:35:49;85183.75;;;8.77;79.30
41312;BME280;27061;41.648;24.568;2024-03-02T12:38:16;85199.63;;;8.77;79.49
41312;BME280;27061;41.648;24.568;2024-03-02T12:40:44;85176.25;;;8.72;79.42
41312;BME280;27061;41.648;24.568;2024-03-02T12:43:11;85202.69;;;9.00;79.10
41312;BME280;27061;41.648;24.568;2024-03-02T12:45:38;85207.56;;;8.97;79.19
41312;BME280;27061;41.648;24.568;2024-03-02T12:48:06;85173.00;;;8.61;78.97
41312;BME280;27061;41.648;24.568;2024-03-02T12:50:34;85210.25;;;9.01;78.31
41312;BME280;27061;41.648;24.568;2024-03-02T12:53:02;85155.75;;;8.61;77.75
41312;BME280;27061;41.648;24.568;2024-03-02T12:55:30;85176.84;;;8.78;77.73
41312;BME280;27061;41.648;24.568;2024-03-02T12:57:57;85207.06;;;8.87;77.33
41312;BME280;27061;41.648;24.568;2024-03-02T13:00:26;85170.16;;;8.67;77.71
41312;BME280;27061;41.648;24.568;2024-03-02T13:02:59;85182.59;;;8.64;77.24
41312;BME280;27061;41.648;24.568;2024-03-02T13:05:32;85214.25;;;8.69;77.34
41312;BME280;27061;41.648;24.568;2024-03-02T13:08:00;85212.84;;;8.70;78.67
41312;BME280;27061;41.648;24.568;2024-03-02T13:10:30;85190.97;;;8.58;78.02
41312;BME280;27061;41.648;24.568;2024-03-02T13:12:59;85191.59;;;8.63;77.92
41312;BME280;27061;41.648;24.568;2024-03-02T13:15:29;85219.69;;;8.73;78.02
41312;BME280;27061;41.648;24.568;2024-03-02T13:17:59;85166.44;;;8.40;77.64
41312;BME280;27061;41.648;24.568;2024-03-02T13:20:31;85222.19;;;8.90;77.62